FBSK

Sir Seretse Khama International Airport

Gaborone, Botswana
METAR FBSK 190900Z 36007KT 290V040 CAVOK 33/M05 Q1017 NOSIG
Observed Flight Rules
Sep-19 @ 09:00 UTC (38 minutes ago) Visual Flight Rules
Wind Visibility Clouds
360° at 7 knots 10,000+ meters
  • Clear skies
Temperatures Readings
Current 33°C / 91°F
Dewpoint -5°C / 23°F
Humidity 8%
Altimeter 30.03" Hg
Pressure 1017 hPa
Elevation 1005
METAR FBSK 190900Z 36007KT 290V040 CAVOK 33/M05 Q1017 NOSIG
Observed Flight Rules
Sep-19 @ 09:00 UTC
(38 minutes ago)
VFR
Wind Visibility
360° at 7 knots 10,000+ meters
Clouds
  • Clear skies
Temperature Dewpoint
33°C / 91°F -5°C / 23°F
Humidity Altimeter Pressure
8% 30.03" Hg 1017 hPa